Time;durP1;ratioP1;P1;durP2;ratioP2;P2;SDS_P1;SDS_P2;PMS_P1;PMS_P2;Temp;Humidity;BMP_temperature;BMP_pressure;BME280_temperature;BME280_humidity;BME280_pressure;Samples;Min_cycle;Max_cycle;Signal;HPM_P1;HPM_P2
2023/09/07 00:00:10;;;;;;;8.13;6.63;;;16.10;99.90;;;;;;4862511;29;20725;-83
2023/09/07 00:02:36;;;;;;;8.20;7.40;;;16.10;99.90;;;;;;4862450;29;20180;-83
2023/09/07 00:05:02;;;;;;;8.87;7.50;;;16.10;99.90;;;;;;4860877;29;20435;-83
2023/09/07 00:07:27;;;;;;;9.00;7.40;;;16.10;99.90;;;;;;4862534;29;20276;-83
2023/09/07 00:09:53;;;;;;;8.70;7.83;;;16.00;99.90;;;;;;4862531;29;20271;-83
2023/09/07 00:12:18;;;;;;;10.77;8.57;;;16.00;99.90;;;;;;4862395;29;20188;-83
2023/09/07 00:14:45;;;;;;;10.80;7.70;;;16.00;99.90;;;;;;4862084;29;20212;-83
2023/09/07 00:17:10;;;;;;;10.57;8.40;;;16.00;99.90;;;;;;4861892;29;20185;-84
2023/09/07 00:19:36;;;;;;;11.57;7.33;;;15.90;99.90;;;;;;4862269;29;20424;-83
2023/09/07 00:22:03;;;;;;;9.80;7.37;;;15.90;99.90;;;;;;4862095;29;20184;-83
2023/09/07 00:24:28;;;;;;;9.63;7.30;;;15.90;99.90;;;;;;4861154;29;20403;-83
2023/09/07 00:26:54;;;;;;;8.60;7.40;;;15.90;99.90;;;;;;4861953;29;20417;-83
2023/09/07 00:29:19;;;;;;;8.70;7.63;;;15.80;99.90;;;;;;4860980;29;20236;-83
2023/09/07 00:31:45;;;;;;;7.60;6.73;;;15.80;99.90;;;;;;4862107;29;20192;-83
2023/09/07 00:34:11;;;;;;;10.23;8.23;;;15.80;99.90;;;;;;4861748;29;20223;-83
2023/09/07 00:36:36;;;;;;;7.97;7.27;;;15.70;99.90;;;;;;4860923;29;20216;-83
2023/09/07 00:39:02;;;;;;;9.63;8.37;;;15.70;99.90;;;;;;4861894;29;20222;-83
2023/09/07 00:41:27;;;;;;;10.23;8.53;;;15.70;99.90;;;;;;4861927;29;20701;-83
2023/09/07 00:43:53;;;;;;;13.90;8.27;;;15.70;99.90;;;;;;4861524;29;20407;-84
2023/09/07 00:46:19;;;;;;;8.80;7.90;;;15.60;99.90;;;;;;4862296;29;20227;-83
2023/09/07 00:48:44;;;;;;;14.10;8.70;;;15.60;99.90;;;;;;4860411;29;20543;-83
2023/09/07 00:51:10;;;;;;;14.53;8.67;;;15.60;99.90;;;;;;4861732;29;20612;-83
2023/09/07 00:53:37;;;;;;;15.63;8.93;;;15.60;99.90;;;;;;4861800;29;20649;-83
2023/09/07 00:56:02;;;;;;;12.03;8.40;;;15.50;99.90;;;;;;4861507;29;20629;-83
2023/09/07 00:58:29;;;;;;;9.87;8.00;;;15.50;99.90;;;;;;4860517;29;20429;-83
2023/09/07 01:00:55;;;;;;;10.23;8.10;;;15.40;99.90;;;;;;4861135;29;20432;-83
2023/09/07 01:03:20;;;;;;;9.60;8.60;;;15.40;99.90;;;;;;4860981;29;20425;-83
2023/09/07 01:06:12;;;;;;;9.80;8.20;;;15.40;99.90;;;;;;4861943;29;20469;-83
2023/09/07 01:08:45;;;;;;;12.50;9.63;;;15.40;99.90;;;;;;4861825;29;20267;-83
2023/09/07 01:11:14;;;;;;;11.73;8.97;;;15.30;99.90;;;;;;4861565;29;20769;-83
2023/09/07 01:13:41;;;;;;;13.17;8.90;;;15.30;99.90;;;;;;4861699;29;20411;-83
2023/09/07 01:16:08;;;;;;;13.40;8.50;;;15.30;99.90;;;;;;4861469;29;20548;-83
2023/09/07 01:18:37;;;;;;;9.13;8.13;;;15.30;99.90;;;;;;4861786;29;20417;-83
2023/09/07 01:21:05;;;;;;;12.03;9.87;;;15.30;99.90;;;;;;4861429;29;20421;-83
2023/09/07 01:23:31;;;;;;;11.07;9.10;;;15.20;99.90;;;;;;4861466;29;20408;-83
2023/09/07 01:25:58;;;;;;;12.10;9.47;;;15.20;99.90;;;;;;4861520;29;20404;-83
2023/09/07 01:28:23;;;;;;;9.87;8.43;;;15.10;99.90;;;;;;4861503;29;20413;-83
2023/09/07 01:30:51;;;;;;;14.53;10.23;;;15.20;99.90;;;;;;4860589;29;20400;-83
2023/09/07 01:33:17;;;;;;;10.20;8.67;;;15.10;99.90;;;;;;4861382;29;20184;-83
2023/09/07 01:35:43;;;;;;;11.30;10.00;;;15.10;99.90;;;;;;4861257;29;20519;-83
2023/09/07 01:38:08;;;;;;;12.50;11.03;;;15.10;99.90;;;;;;4861594;29;20188;-83
2023/09/07 01:40:34;;;;;;;12.40;10.80;;;15.10;99.90;;;;;;4861391;29;20425;-83
2023/09/07 01:42:59;;;;;;;12.07;10.53;;;15.10;99.90;;;;;;4861519;29;20188;-83
2023/09/07 01:45:25;;;;;;;12.67;10.07;;;15.10;99.90;;;;;;4861757;29;20192;-83
2023/09/07 01:47:51;;;;;;;15.17;11.53;;;15.10;99.90;;;;;;4861508;29;20193;-83
2023/09/07 01:50:17;;;;;;;12.87;9.67;;;15.00;99.90;;;;;;4860939;29;20283;-83
2023/09/07 01:52:47;;;;;;;13.27;11.33;;;15.10;99.90;;;;;;4864544;29;20516;-83
2023/09/07 01:55:12;;;;;;;11.70;10.50;;;15.00;99.90;;;;;;4864572;29;20468;-83
2023/09/07 01:57:38;;;;;;;11.70;10.30;;;15.00;99.90;;;;;;4864956;29;20786;-83
2023/09/07 02:00:05;;;;;;;16.00;11.10;;;15.10;99.90;;;;;;4864621;29;20191;-83
2023/09/07 02:02:30;;;;;;;18.20;10.27;;;15.10;99.90;;;;;;4864790;29;20196;-83
2023/09/07 02:04:56;;;;;;;11.50;10.30;;;15.00;99.90;;;;;;4864429;29;20822;-83
2023/09/07 02:07:22;;;;;;;11.87;10.50;;;15.10;99.90;;;;;;4864910;29;20180;-83
2023/09/07 02:09:48;;;;;;;20.67;11.70;;;15.00;99.90;;;;;;4864569;29;20916;-83
2023/09/07 02:12:13;;;;;;;16.90;10.37;;;15.00;99.90;;;;;;4864485;29;20202;-83
2023/09/07 02:14:39;;;;;;;10.60;9.50;;;15.00;99.90;;;;;;4864710;29;20216;-83
2023/09/07 02:17:04;;;;;;;12.57;9.73;;;15.00;99.90;;;;;;4864273;29;20271;-83
2023/09/07 02:19:30;;;;;;;11.53;10.33;;;15.10;99.90;;;;;;4864571;29;20189;-83
2023/09/07 02:21:56;;;;;;;11.37;10.20;;;15.20;99.90;;;;;;4864625;29;20248;-83
2023/09/07 02:24:21;;;;;;;16.07;10.87;;;15.30;99.90;;;;;;4863155;29;20188;-83
2023/09/07 02:26:47;;;;;;;13.43;11.30;;;15.30;99.90;;;;;;4864557;29;20593;-83
2023/09/07 02:29:12;;;;;;;11.33;9.33;;;15.30;99.90;;;;;;4864050;29;20204;-83
2023/09/07 02:31:40;;;;;;;10.57;9.10;;;15.20;99.90;;;;;;4863198;29;20192;-83
2023/09/07 02:34:05;;;;;;;12.23;8.83;;;15.20;99.90;;;;;;4863919;29;20184;-83
2023/09/07 02:36:31;;;;;;;11.00;8.53;;;15.30;99.90;;;;;;4864323;29;20392;-83
2023/09/07 02:38:56;;;;;;;9.73;8.37;;;15.40;99.90;;;;;;4864409;29;20263;-82
2023/09/07 02:41:22;;;;;;;11.23;8.20;;;15.50;99.90;;;;;;4863925;29;20679;-82
2023/09/07 02:43:47;;;;;;;10.17;8.47;;;15.50;99.90;;;;;;4863277;29;20188;-82
2023/09/07 02:46:13;;;;;;;8.30;7.50;;;15.60;99.90;;;;;;4863919;29;20196;-82
2023/09/07 02:48:38;;;;;;;9.13;8.07;;;15.70;99.90;;;;;;4864082;29;20188;-82
2023/09/07 02:51:05;;;;;;;8.87;7.30;;;15.80;99.90;;;;;;4862839;29;20212;-82
2023/09/07 02:53:30;;;;;;;13.30;7.73;;;15.80;99.90;;;;;;4862564;29;20240;-82
2023/09/07 02:55:56;;;;;;;9.47;7.80;;;15.90;99.90;;;;;;4864140;29;20459;-82
2023/09/07 02:58:23;;;;;;;14.70;8.03;;;15.90;99.90;;;;;;4864115;29;20534;-82
2023/09/07 03:00:48;;;;;;;7.87;7.17;;;15.90;99.90;;;;;;4862558;29;20216;-82
2023/09/07 03:03:15;;;;;;;10.43;8.00;;;15.90;99.90;;;;;;4862524;29;20469;-82
2023/09/07 03:05:41;;;;;;;7.30;6.60;;;15.90;99.90;;;;;;4863540;29;20232;-82
2023/09/07 03:08:07;;;;;;;7.73;6.97;;;15.90;99.90;;;;;;4863533;29;20421;-82
2023/09/07 03:10:35;;;;;;;9.10;6.80;;;15.90;99.90;;;;;;4863912;29;20809;-82
2023/09/07 03:13:00;;;;;;;8.90;6.30;;;15.90;99.90;;;;;;4862835;29;20900;-83
2023/09/07 03:15:27;;;;;;;7.30;6.20;;;15.90;99.90;;;;;;4864121;29;20474;-81
2023/09/07 03:17:52;;;;;;;10.50;7.50;;;15.80;99.90;;;;;;4862793;29;20188;-81
2023/09/07 03:20:18;;;;;;;7.83;6.80;;;15.80;99.90;;;;;;4863351;29;20396;-82
2023/09/07 03:22:44;;;;;;;8.40;6.40;;;15.80;99.90;;;;;;4863555;29;20649;-82
2023/09/07 03:25:11;;;;;;;7.67;6.37;;;15.70;99.90;;;;;;4863723;29;20402;-82
2023/09/07 03:27:39;;;;;;;7.33;6.73;;;15.70;99.90;;;;;;4864066;29;20413;-81
2023/09/07 03:30:07;;;;;;;8.70;7.47;;;15.60;99.90;;;;;;4863398;29;20388;-82
2023/09/07 03:32:33;;;;;;;7.57;6.70;;;15.50;99.90;;;;;;4863213;29;20425;-82
2023/09/07 03:35:00;;;;;;;9.00;6.77;;;15.40;99.90;;;;;;4863224;29;20529;-82
2023/09/07 03:37:27;;;;;;;8.10;7.30;;;15.30;99.90;;;;;;4863452;29;20426;-82
2023/09/07 03:39:53;;;;;;;7.47;6.77;;;15.20;99.90;;;;;;4863290;29;20896;-82
2023/09/07 03:42:18;;;;;;;7.60;6.73;;;15.10;99.90;;;;;;4863038;29;20391;-82
2023/09/07 03:44:44;;;;;;;11.27;7.23;;;15.00;99.90;;;;;;4863238;29;20188;-82
2023/09/07 03:47:12;;;;;;;11.93;8.03;;;15.00;99.90;;;;;;4862812;29;20279;-82
2023/09/07 03:49:38;;;;;;;9.60;6.93;;;15.00;99.90;;;;;;4862714;29;20421;-82
2023/09/07 03:52:03;;;;;;;10.33;6.70;;;15.10;99.90;;;;;;4862779;29;20417;-82
2023/09/07 03:54:31;;;;;;;9.17;7.57;;;15.30;99.90;;;;;;4863049;29;20455;-82
2023/09/07 03:56:57;;;;;;;13.43;7.27;;;15.40;99.90;;;;;;4862710;29;20869;-82
2023/09/07 03:59:22;;;;;;;10.10;8.10;;;15.50;99.90;;;;;;4862910;29;20457;-82
2023/09/07 04:01:48;;;;;;;9.77;7.00;;;15.50;99.90;;;;;;4862819;29;20673;-82
2023/09/07 04:04:14;;;;;;;10.70;6.80;;;15.50;99.90;;;;;;4862317;29;20188;-82
2023/09/07 04:06:39;;;;;;;8.23;6.67;;;15.40;99.90;;;;;;4863115;29;20301;-82
2023/09/07 04:09:05;;;;;;;11.30;7.07;;;15.40;99.90;;;;;;4861283;29;20565;-82
2023/09/07 04:11:31;;;;;;;10.33;7.70;;;15.40;99.90;;;;;;4862764;29;20176;-82
2023/09/07 04:13:56;;;;;;;8.53;7.63;;;15.40;99.90;;;;;;4862222;29;20191;-82
2023/09/07 04:16:22;;;;;;;8.93;7.80;;;15.30;99.90;;;;;;4861145;29;20215;-82
2023/09/07 04:18:47;;;;;;;8.53;7.10;;;15.30;99.90;;;;;;4861384;29;20184;-82
2023/09/07 04:21:13;;;;;;;10.17;7.70;;;15.20;99.90;;;;;;4861438;29;20200;-82
2023/09/07 04:23:40;;;;;;;8.57;7.03;;;15.10;99.90;;;;;;4862717;29;20203;-82
2023/09/07 04:26:10;;;;;;;10.20;8.13;;;15.10;99.90;;;;;;4862635;29;20712;-83
2023/09/07 04:28:36;;;;;;;12.07;8.17;;;15.10;99.90;;;;;;4862411;29;20487;-82
2023/09/07 04:31:02;;;;;;;9.63;8.30;;;15.00;99.90;;;;;;4846006;29;20499;-82
2023/09/07 04:33:32;;;;;;;12.13;8.77;;;15.00;99.90;;;;;;4861757;29;20425;-81
2023/09/07 04:36:07;;;;;;;10.50;8.13;;;14.90;99.90;;;;;;4862796;29;20455;-82
2023/09/07 04:38:32;;;;;;;10.00;7.33;;;14.90;99.90;;;;;;4862815;29;20400;-82
2023/09/07 04:41:09;;;;;;;9.90;8.77;;;14.90;99.90;;;;;;4862320;29;20429;-81
2023/09/07 04:43:36;;;;;;;14.83;7.50;;;14.80;99.90;;;;;;4862633;29;20264;-82
2023/09/07 04:46:02;;;;;;;8.33;7.00;;;14.80;99.90;;;;;;4862460;29;20507;-81
2023/09/07 04:48:28;;;;;;;12.70;8.20;;;14.70;99.90;;;;;;4862370;29;20421;-82
2023/09/07 04:51:04;;;;;;;12.93;9.50;;;14.70;99.90;;;;;;4862125;29;20442;-82
2023/09/07 04:53:32;;;;;;;10.60;8.63;;;14.70;99.90;;;;;;4861983;29;20275;-82
2023/09/07 04:55:59;;;;;;;12.47;8.67;;;14.70;99.90;;;;;;4861947;29;20473;-82
2023/09/07 04:58:25;;;;;;;20.30;10.03;;;14.70;99.90;;;;;;4861591;29;20430;-82
2023/09/07 05:00:51;;;;;;;10.80;9.20;;;14.70;99.90;;;;;;4862200;29;20425;-82
2023/09/07 05:03:17;;;;;;;14.80;9.20;;;14.70;99.90;;;;;;4861929;29;20773;-82
2023/09/07 05:05:43;;;;;;;10.03;9.00;;;14.80;99.90;;;;;;4861948;29;20447;-82
2023/09/07 05:08:09;;;;;;;19.80;10.17;;;14.80;99.90;;;;;;4861769;29;20664;-83
2023/09/07 05:10:36;;;;;;;10.90;9.80;;;14.90;99.90;;;;;;4862071;29;20408;-82
2023/09/07 05:13:01;;;;;;;12.27;8.67;;;14.90;99.90;;;;;;4850437;29;20495;-82
2023/09/07 05:15:27;;;;;;;23.80;10.47;;;14.90;99.90;;;;;;4861058;29;20591;-82
2023/09/07 05:17:54;;;;;;;11.30;9.37;;;15.00;99.90;;;;;;4861926;29;20217;-82
2023/09/07 05:20:20;;;;;;;12.57;9.20;;;14.90;99.90;;;;;;4861377;29;20188;-82
2023/09/07 05:22:46;;;;;;;14.20;10.20;;;14.90;99.90;;;;;;4859139;29;20400;-82
2023/09/07 05:25:12;;;;;;;14.73;10.97;;;15.00;99.90;;;;;;4851211;29;20433;-82
2023/09/07 05:27:38;;;;;;;12.07;9.27;;;14.90;99.90;;;;;;4865269;29;20802;-82
2023/09/07 05:30:05;;;;;;;15.17;10.07;;;15.00;99.90;;;;;;4862998;29;20516;-82
2023/09/07 05:32:31;;;;;;;15.43;9.67;;;15.10;99.90;;;;;;4864026;29;20433;-81
2023/09/07 05:34:56;;;;;;;13.97;9.67;;;15.10;99.90;;;;;;4865838;29;20530;-82
2023/09/07 05:37:22;;;;;;;16.90;9.33;;;15.20;99.90;;;;;;4865336;29;20852;-81
2023/09/07 05:39:48;;;;;;;11.57;8.77;;;15.20;99.90;;;;;;4865594;29;20180;-82
2023/09/07 05:42:14;;;;;;;12.37;8.40;;;15.30;99.90;;;;;;4865329;29;20245;-82
2023/09/07 05:44:40;;;;;;;12.83;8.73;;;15.40;99.90;;;;;;4865675;29;20787;-82
2023/09/07 05:47:06;;;;;;;11.70;7.80;;;15.40;99.90;;;;;;4864205;29;20193;-82
2023/09/07 05:49:31;;;;;;;9.90;7.63;;;15.40;99.90;;;;;;4865339;29;20221;-82
2023/09/07 05:51:57;;;;;;;13.67;9.10;;;15.50;99.90;;;;;;4865496;29;20191;-82
2023/09/07 05:54:23;;;;;;;12.27;8.60;;;15.50;99.90;;;;;;4865377;29;20252;-82
2023/09/07 05:56:48;;;;;;;11.37;7.83;;;15.60;99.90;;;;;;4865179;29;20554;-81
2023/09/07 05:59:14;;;;;;;11.03;7.97;;;15.60;99.90;;;;;;4863560;29;20248;-88
2023/09/07 06:01:40;;;;;;;9.80;7.00;;;15.70;99.90;;;;;;4864638;29;20201;-88
2023/09/07 06:04:06;;;;;;;11.93;8.50;;;15.70;99.90;;;;;;4863242;29;20212;-89
2023/09/07 06:06:31;;;;;;;14.27;7.40;;;15.80;99.90;;;;;;4864256;29;20396;-89
2023/09/07 06:09:00;;;;;;;11.70;7.20;;;15.80;99.90;;;;;;4847986;29;20447;-89
2023/09/07 06:11:26;;;;;;;9.20;6.37;;;16.00;99.90;;;;;;4864043;29;20551;-89
2023/09/07 06:13:51;;;;;;;9.63;7.57;;;16.00;99.90;;;;;;4863473;29;20521;-89
2023/09/07 06:16:17;;;;;;;7.40;6.40;;;16.10;99.90;;;;;;4862822;29;20665;-89
2023/09/07 06:18:43;;;;;;;9.50;6.60;;;16.30;99.90;;;;;;4863390;29;20621;-89
2023/09/07 06:21:09;;;;;;;9.47;7.10;;;16.40;99.90;;;;;;4864405;29;20718;-89
2023/09/07 06:23:34;;;;;;;11.40;6.37;;;16.40;99.90;;;;;;4862624;29;20208;-89
2023/09/07 06:26:00;;;;;;;8.73;6.57;;;16.50;99.90;;;;;;4866722;29;20196;-89
2023/09/07 06:28:26;;;;;;;9.03;6.80;;;16.60;99.90;;;;;;4864958;29;20234;-89
2023/09/07 06:30:52;;;;;;;9.03;5.73;;;16.60;99.90;;;;;;4863441;29;20645;-89
2023/09/07 06:33:18;;;;;;;8.33;6.53;;;16.80;99.90;;;;;;4848290;29;20413;-89
2023/09/07 06:35:43;;;;;;;6.97;6.27;;;16.90;99.90;;;;;;4863583;29;20226;-89
2023/09/07 06:38:09;;;;;;;8.07;6.20;;;17.00;99.90;;;;;;4864878;29;20188;-89
2023/09/07 06:40:34;;;;;;;7.20;6.30;;;17.10;99.90;;;;;;4864611;29;20184;-89
2023/09/07 06:43:04;;;;;;;10.10;6.17;;;17.20;99.90;;;;;;4863428;29;20188;-88
2023/09/07 06:45:35;;;;;;;8.23;6.13;;;17.30;99.90;;;;;;4864770;29;20192;-88
2023/09/07 06:48:01;;;;;;;12.13;6.50;;;17.40;99.90;;;;;;4864277;29;20391;-88
2023/09/07 06:50:27;;;;;;;7.83;6.00;;;17.50;99.90;;;;;;4864007;29;20425;-89
2023/09/07 06:52:53;;;;;;;10.90;6.83;;;17.60;99.90;;;;;;4832014;29;20415;-88
2023/09/07 06:55:18;;;;;;;6.70;6.00;;;17.80;99.90;;;;;;4863711;29;20665;-88
2023/09/07 06:57:44;;;;;;;13.60;6.30;;;17.90;99.90;;;;;;4863690;29;20237;-88
2023/09/07 07:00:11;;;;;;;8.90;6.00;;;18.00;99.90;;;;;;4864087;29;20198;-88
2023/09/07 07:02:37;;;;;;;8.67;6.10;;;18.10;99.90;;;;;;4863678;29;20298;-88
2023/09/07 07:05:03;;;;;;;11.33;6.90;;;18.20;99.90;;;;;;4863477;29;20476;-88
2023/09/07 07:07:29;;;;;;;12.90;6.97;;;18.30;99.90;;;;;;4862089;29;20195;-88
2023/09/07 07:09:54;;;;;;;9.73;7.00;;;18.40;99.90;;;;;;4863395;29;20185;-89
2023/09/07 07:12:20;;;;;;;8.97;6.10;;;18.50;99.90;;;;;;4863358;29;20458;-88
2023/09/07 07:14:46;;;;;;;12.33;6.33;;;18.60;99.90;;;;;;4847045;29;20215;-89
2023/09/07 07:17:12;;;;;;;10.20;6.10;;;18.70;99.90;;;;;;4863082;29;20764;-88
2023/09/07 07:19:37;;;;;;;15.50;7.20;;;18.80;99.90;;;;;;4862558;29;20580;-87
2023/09/07 07:22:03;;;;;;;14.97;6.23;;;18.90;99.90;;;;;;4863317;29;20626;-88
2023/09/07 07:24:29;;;;;;;16.60;6.87;;;19.00;99.90;;;;;;4862743;29;20184;-88
2023/09/07 07:26:54;;;;;;;14.00;5.70;;;19.10;99.90;;;;;;4863383;29;20245;-88
2023/09/07 07:29:20;;;;;;;9.67;5.90;;;19.20;99.90;;;;;;4862025;29;20633;-89
2023/09/07 07:31:46;;;;;;;14.23;6.40;;;19.40;99.90;;;;;;4846617;29;20181;-88
2023/09/07 07:34:12;;;;;;;8.03;5.97;;;19.40;99.90;;;;;;4862889;29;20195;-89
2023/09/07 07:36:38;;;;;;;6.17;5.57;;;19.50;99.90;;;;;;4861189;29;20417;-89
2023/09/07 07:39:06;;;;;;;8.23;6.10;;;19.60;99.90;;;;;;4862999;29;20199;-88
2023/09/07 07:41:32;;;;;;;11.50;6.17;;;19.70;99.90;;;;;;4862684;29;20417;-88
2023/09/07 07:43:58;;;;;;;11.20;5.83;;;19.80;99.90;;;;;;4862816;29;20404;-88
2023/09/07 07:46:24;;;;;;;9.20;6.20;;;19.90;99.90;;;;;;4861468;29;20192;-90
2023/09/07 07:48:50;;;;;;;7.93;6.30;;;20.10;99.90;;;;;;4861774;29;20496;-88
2023/09/07 07:51:15;;;;;;;9.53;5.80;;;20.20;99.90;;;;;;4861321;29;20887;-89
2023/09/07 07:53:41;;;;;;;7.13;5.20;;;20.40;99.90;;;;;;4861386;29;20188;-88
2023/09/07 07:56:15;;;;;;;9.83;5.77;;;20.40;99.90;;;;;;4862635;29;20223;-89
2023/09/07 07:58:40;;;;;;;22.07;5.60;;;20.60;99.90;;;;;;4862574;29;20633;-88
2023/09/07 08:01:14;;;;;;;6.63;5.03;;;20.80;99.90;;;;;;4861536;29;20424;-88
2023/09/07 08:03:40;;;;;;;13.53;5.17;;;20.80;99.90;;;;;;4861201;29;20552;-88
2023/09/07 08:06:06;;;;;;;7.57;5.30;;;20.90;99.90;;;;;;4845862;29;20473;-89
2023/09/07 08:08:31;;;;;;;13.97;5.17;;;21.00;99.90;;;;;;4862541;29;20641;-88
2023/09/07 08:10:58;;;;;;;5.97;4.10;;;21.20;99.90;;;;;;4861256;29;20275;-87
2023/09/07 08:13:24;;;;;;;5.00;4.27;;;21.40;99.90;;;;;;4862094;29;20219;-88
2023/09/07 08:15:49;;;;;;;8.80;4.67;;;21.40;99.90;;;;;;4862299;29;20936;-88
2023/09/07 08:18:15;;;;;;;6.30;4.57;;;21.50;99.90;;;;;;4845667;29;20309;-88
2023/09/07 08:20:41;;;;;;;6.60;4.50;;;21.50;99.90;;;;;;4861847;29;20184;-88
2023/09/07 08:23:09;;;;;;;9.00;4.47;;;21.60;99.90;;;;;;4861910;29;20271;-88
2023/09/07 08:25:35;;;;;;;9.90;4.60;;;21.80;99.90;;;;;;4860651;29;20509;-88
2023/09/07 08:28:05;;;;;;;5.13;4.50;;;21.80;99.90;;;;;;4860838;29;20422;-88
2023/09/07 08:30:30;;;;;;;11.50;4.57;;;22.10;99.90;;;;;;4861557;29;20188;-88
2023/09/07 08:32:56;;;;;;;6.13;4.90;;;22.60;99.90;;;;;;4860657;29;20974;-88
2023/09/07 08:35:26;;;;;;;8.03;4.10;;;23.00;99.90;;;;;;4861415;29;20258;-88
2023/09/07 08:37:52;;;;;;;5.43;4.80;;;23.40;99.90;;;;;;4861817;29;20954;-89
2023/09/07 08:40:19;;;;;;;5.30;3.80;;;24.10;99.90;;;;;;4861239;29;20528;-89
2023/09/07 08:42:44;;;;;;;5.43;4.27;;;24.40;99.90;;;;;;4872375;29;20440;-89
2023/09/07 08:45:15;;;;;;;5.20;4.40;;;24.60;99.90;;;;;;4863872;29;20444;-90
2023/09/07 08:47:42;;;;;;;4.93;4.40;;;24.70;99.90;;;;;;4862524;29;20195;-89
2023/09/07 08:50:10;;;;;;;6.47;4.40;;;25.00;99.90;;;;;;4861815;29;20431;-90
2023/09/07 08:52:36;;;;;;;5.50;4.43;;;25.00;99.90;;;;;;4861303;29;20523;-90
2023/09/07 08:55:05;;;;;;;5.23;4.50;;;24.90;99.90;;;;;;4861477;29;20480;-90
2023/09/07 08:57:31;;;;;;;5.23;4.47;;;25.40;99.90;;;;;;4861387;29;20421;-89
2023/09/07 08:59:57;;;;;;;8.50;4.13;;;25.70;99.90;;;;;;4861097;29;20418;-88
2023/09/07 09:02:23;;;;;;;4.27;3.87;;;25.60;99.90;;;;;;4861011;29;20432;-88
2023/09/07 09:04:49;;;;;;;5.50;4.00;;;25.70;99.90;;;;;;4860050;29;20287;-88
2023/09/07 09:07:15;;;;;;;6.90;4.60;;;26.00;99.90;;;;;;4860314;29;20208;-89
2023/09/07 09:09:40;;;;;;;5.60;3.77;;;26.40;99.90;;;;;;4863114;29;20600;-89
2023/09/07 09:12:13;;;;;;;7.70;3.90;;;26.90;99.90;;;;;;4861084;29;20551;-89
2023/09/07 09:14:44;;;;;;;6.20;3.93;;;27.00;99.90;;;;;;4860901;29;20215;-89
2023/09/07 09:17:17;;;;;;;5.20;4.10;;;27.10;99.90;;;;;;4859506;29;20437;-89
2023/09/07 09:19:42;;;;;;;7.67;3.63;;;27.50;99.90;;;;;;4859721;29;20425;-89
2023/09/07 09:22:08;;;;;;;4.90;4.10;;;27.50;99.90;;;;;;4860741;29;20425;-89
2023/09/07 09:24:35;;;;;;;6.33;4.33;;;27.60;99.90;;;;;;4860943;29;20191;-89
2023/09/07 09:27:00;;;;;;;4.77;4.03;;;27.70;99.90;;;;;;4859967;29;20473;-88
2023/09/07 09:29:27;;;;;;;5.33;4.57;;;27.50;99.90;;;;;;4859427;29;20839;-89
2023/09/07 09:31:53;;;;;;;8.03;3.80;;;28.00;99.90;;;;;;4859611;29;20546;-89
2023/09/07 09:34:19;;;;;;;5.50;4.03;;;28.30;99.90;;;;;;4860902;29;20504;-88
2023/09/07 09:36:46;;;;;;;5.83;3.97;;;28.10;99.90;;;;;;4860692;29;20227;-88
2023/09/07 09:39:22;;;;;;;4.93;4.03;;;28.90;99.90;;;;;;4844123;29;20492;-88
2023/09/07 09:41:48;;;;;;;4.63;3.80;;;29.10;99.90;;;;;;4860912;29;20169;-88
2023/09/07 09:44:16;;;;;;;4.93;3.63;;;29.20;99.90;;;;;;4860626;29;20421;-87
2023/09/07 09:46:43;;;;;;;4.30;3.90;;;29.70;99.90;;;;;;4861070;29;20184;-88
2023/09/07 09:49:11;;;;;;;5.57;3.90;;;29.80;99.90;;;;;;4860681;29;20433;-88
2023/09/07 09:51:38;;;;;;;6.63;4.20;;;29.70;99.90;;;;;;4860613;29;20787;-88
2023/09/07 09:54:06;;;;;;;6.10;3.63;;;30.50;99.90;;;;;;4859456;29;20417;-90
2023/09/07 09:56:32;;;;;;;4.50;3.90;;;30.30;99.90;;;;;;4859048;29;20847;-90
2023/09/07 09:58:57;;;;;;;4.33;3.90;;;30.50;99.90;;;;;;4859588;29;20432;-89
2023/09/07 10:01:23;;;;;;;4.67;3.50;;;30.70;99.90;;;;;;4860881;29;20421;-88
2023/09/07 10:03:50;;;;;;;5.27;4.00;;;31.00;99.90;;;;;;4860745;29;20196;-89
2023/09/07 10:06:28;;;;;;;6.40;4.20;;;30.60;99.90;;;;;;4860568;29;20544;-88
2023/09/07 10:09:06;;;;;;;4.43;3.77;;;30.60;99.90;;;;;;4859458;29;20784;-89
2023/09/07 10:11:33;;;;;;;4.30;3.73;;;30.90;99.90;;;;;;4861695;29;20409;-89
2023/09/07 10:14:00;;;;;;;8.20;3.93;;;31.00;99.90;;;;;;4864426;29;20412;-89
2023/09/07 10:16:27;;;;;;;6.93;3.80;;;31.70;99.90;;;;;;4862170;29;20841;-90
2023/09/07 10:18:53;;;;;;;5.40;4.20;;;31.10;99.90;;;;;;4864092;29;20484;-89
2023/09/07 10:21:18;;;;;;;6.70;4.20;;;30.90;99.90;;;;;;4862517;29;20462;-88
2023/09/07 10:23:45;;;;;;;4.70;4.30;;;31.40;99.90;;;;;;4846907;29;20263;-88
2023/09/07 10:26:16;;;;;;;5.33;4.30;;;31.70;99.90;;;;;;4863940;29;20184;-89
2023/09/07 10:28:43;;;;;;;4.60;4.00;;;32.10;99.90;;;;;;4863264;29;20952;-89
2023/09/07 10:31:19;;;;;;;4.20;3.80;;;32.00;99.90;;;;;;4863879;29;20409;-89
2023/09/07 10:33:46;;;;;;;4.70;3.67;;;32.60;99.90;;;;;;4863275;29;20428;-88
2023/09/07 10:36:25;;;;;;;5.67;3.60;;;32.40;99.90;;;;;;4863316;29;20829;-88
2023/09/07 10:38:54;;;;;;;7.13;4.07;;;32.70;99.90;;;;;;4863367;29;20429;-88
2023/09/07 10:41:20;;;;;;;4.07;3.47;;;32.70;99.90;;;;;;4862253;29;20417;-90
2023/09/07 10:43:51;;;;;;;4.23;3.67;;;32.40;99.90;;;;;;4847185;29;20448;-89
2023/09/07 10:46:21;;;;;;;4.70;3.90;;;32.30;99.90;;;;;;4863347;29;20195;-88
2023/09/07 10:48:50;;;;;;;4.10;3.70;;;32.20;99.90;;;;;;4863389;29;20429;-89
2023/09/07 10:51:16;;;;;;;3.80;3.43;;;32.20;99.90;;;;;;4867629;29;20406;-90
2023/09/07 10:53:42;;;;;;;5.13;3.90;;;32.00;99.90;;;;;;4863394;29;20422;-89
2023/09/07 10:56:08;;;;;;;3.77;3.40;;;32.40;99.90;;;;;;4863294;29;20532;-90
2023/09/07 10:58:39;;;;;;;6.60;3.40;;;32.80;99.90;;;;;;4862835;29;20192;-90
2023/09/07 11:01:05;;;;;;;4.07;3.77;;;33.30;99.90;;;;;;4862947;29;20453;-88
2023/09/07 11:03:31;;;;;;;3.73;3.43;;;33.30;99.90;;;;;;4863418;29;20441;-89
2023/09/07 11:06:03;;;;;;;4.20;2.97;;;33.30;99.90;;;;;;4863025;29;20479;-87
2023/09/07 11:08:33;;;;;;;5.83;3.33;;;33.30;99.90;;;;;;4862831;29;20443;-89
2023/09/07 11:10:59;;;;;;;3.90;3.60;;;33.10;99.90;;;;;;4862710;29;20429;-92
2023/09/07 11:13:26;;;;;;;4.73;3.10;;;33.30;99.90;;;;;;4846107;29;20429;-88
2023/09/07 11:15:55;;;;;;;5.37;3.60;;;33.10;99.90;;;;;;4861515;29;20259;-89
2023/09/07 11:18:21;;;;;;;8.13;3.90;;;33.40;99.90;;;;;;4861715;29;20472;-89
2023/09/07 11:20:48;;;;;;;3.93;3.13;;;33.90;99.90;;;;;;4862735;29;20433;-90
2023/09/07 11:23:13;;;;;;;3.63;3.27;;;34.00;99.90;;;;;;4860712;29;20437;-88
2023/09/07 11:25:39;;;;;;;5.30;3.07;;;33.60;99.90;;;;;;4862450;29;20850;-87
2023/09/07 11:28:06;;;;;;;3.80;3.50;;;33.90;99.90;;;;;;4862658;29;20294;-89
2023/09/07 11:30:33;;;;;;;3.30;3.00;;;34.10;99.90;;;;;;4862499;29;20196;-88
2023/09/07 11:33:07;;;;;;;3.40;3.20;;;34.40;99.90;;;;;;4862745;29;20424;-88
2023/09/07 11:35:36;;;;;;;3.87;3.47;;;34.30;99.90;;;;;;4862532;29;20459;-88
2023/09/07 11:38:04;;;;;;;3.10;2.80;;;34.10;99.90;;;;;;4862550;29;20755;-87
2023/09/07 11:40:30;;;;;;;5.97;3.53;;;33.90;99.90;;;;;;4861060;29;20517;-88
2023/09/07 11:42:56;;;;;;;4.93;3.40;;;34.00;99.90;;;;;;4862420;29;20413;-87
2023/09/07 11:45:22;;;;;;;4.80;3.33;;;34.50;99.90;;;;;;4861058;29;20429;-88
2023/09/07 11:47:48;;;;;;;6.83;3.47;;;34.80;99.90;;;;;;4862050;29;20466;-87
2023/09/07 11:50:16;;;;;;;5.27;3.47;;;35.40;99.90;;;;;;4860950;29;20937;-87
2023/09/07 11:52:41;;;;;;;12.20;4.27;;;35.90;99.90;;;;;;4861880;29;20241;-87
2023/09/07 11:55:08;;;;;;;4.27;3.60;;;36.00;99.90;;;;;;4862061;29;20469;-87
2023/09/07 11:57:33;;;;;;;3.47;3.17;;;35.80;99.90;;;;;;4860577;29;20193;-88
2023/09/07 11:59:59;;;;;;;4.10;3.70;;;35.90;99.90;;;;;;4860711;29;20492;-87
2023/09/07 12:02:26;;;;;;;4.20;3.80;;;36.30;96.70;;;;;;4860928;29;20195;-88
2023/09/07 12:04:52;;;;;;;4.10;3.70;;;35.70;96.10;;;;;;4862003;29;20244;-86
2023/09/07 12:07:17;;;;;;;6.90;3.50;;;35.90;98.00;;;;;;4862064;29;20743;-87
2023/09/07 12:09:43;;;;;;;4.43;4.03;;;36.00;97.50;;;;;;4861763;29;20184;-88
2023/09/07 12:12:10;;;;;;;3.90;3.00;;;36.10;97.80;;;;;;4861463;29;20188;-87
2023/09/07 12:14:36;;;;;;;4.37;3.73;;;36.40;97.10;;;;;;4861379;29;20215;-88
2023/09/07 12:17:03;;;;;;;6.73;3.83;;;36.40;96.50;;;;;;4860842;29;20449;-87
2023/09/07 12:19:28;;;;;;;3.63;3.33;;;36.50;95.00;;;;;;4861881;29;20176;-86
2023/09/07 12:21:54;;;;;;;7.30;3.10;;;36.50;94.10;;;;;;4861473;29;20413;-87
2023/09/07 12:24:20;;;;;;;5.20;3.50;;;36.90;93.90;;;;;;4861409;29;20696;-88
2023/09/07 12:26:45;;;;;;;3.47;3.20;;;37.10;93.30;;;;;;4861200;29;20180;-88
2023/09/07 12:29:11;;;;;;;7.90;3.30;;;36.90;92.20;;;;;;4861596;29;20183;-86
2023/09/07 12:31:37;;;;;;;5.33;3.70;;;37.00;91.90;;;;;;4860315;29;20180;-85
2023/09/07 12:34:02;;;;;;;7.60;3.53;;;37.20;90.60;;;;;;4861235;29;20204;-85
2023/09/07 12:36:29;;;;;;;4.17;3.33;;;37.40;89.90;;;;;;4861586;29;20223;-86
2023/09/07 12:39:01;;;;;;;3.47;3.23;;;37.20;89.30;;;;;;4859819;29;20223;-86